sensor_id;sensor_type;location;lat;lon;timestamp;pressure;altitude;pressure_sealevel;temperature;humidity
47763;BME280;33526;42.690;23.322;2023-02-20T00:01:14;95290.06;;;9.63;57.85
47763;BME280;33526;42.690;23.322;2023-02-20T00:03:46;95251.31;;;9.34;58.31
47763;BME280;33526;42.690;23.322;2023-02-20T00:06:16;95297.22;;;9.64;58.17
47763;BME280;33526;42.690;23.322;2023-02-20T00:08:43;95247.69;;;9.24;58.60
47763;BME280;33526;42.690;23.322;2023-02-20T00:11:10;95236.63;;;9.11;59.00
47763;BME280;33526;42.690;23.322;2023-02-20T00:13:48;95324.09;;;9.71;59.35
47763;BME280;33526;42.690;23.322;2023-02-20T00:16:21;95328.13;;;9.70;59.70
47763;BME280;33526;42.690;23.322;2023-02-20T00:19:00;95226.19;;;9.03;60.12
47763;BME280;33526;42.690;23.322;2023-02-20T00:21:28;95312.94;;;9.71;60.18
47763;BME280;33526;42.690;23.322;2023-02-20T00:23:54;95367.38;;;9.98;60.21
47763;BME280;33526;42.690;23.322;2023-02-20T00:26:20;95284.53;;;9.41;60.55
47763;BME280;33526;42.690;23.322;2023-02-20T00:28:54;95272.34;;;9.26;60.72
47763;BME280;33526;42.690;23.322;2023-02-20T00:31:35;95374.47;;;9.89;61.12
47763;BME280;33526;42.690;23.322;2023-02-20T00:34:06;95210.38;;;8.77;61.18
47763;BME280;33526;42.690;23.322;2023-02-20T00:36:33;95228.72;;;8.88;61.32
47763;BME280;33526;42.690;23.322;2023-02-20T00:38:59;95215.94;;;8.77;61.50
47763;BME280;33526;42.690;23.322;2023-02-20T00:41:26;95193.56;;;8.68;61.67
47763;BME280;33526;42.690;23.322;2023-02-20T00:43:54;95361.34;;;9.77;61.91
47763;BME280;33526;42.690;23.322;2023-02-20T00:46:20;95287.91;;;9.14;62.47
47763;BME280;33526;42.690;23.322;2023-02-20T00:48:47;95280.94;;;9.09;62.52
47763;BME280;33526;42.690;23.322;2023-02-20T00:51:16;95257.50;;;8.85;62.41
47763;BME280;33526;42.690;23.322;2023-02-20T00:53:42;95388.25;;;9.62;62.57
47763;BME280;33526;42.690;23.322;2023-02-20T00:56:07;95389.41;;;9.51;63.15
47763;BME280;33526;42.690;23.322;2023-02-20T00:58:34;95292.19;;;8.84;63.39
47763;BME280;33526;42.690;23.322;2023-02-20T01:01:01;95400.72;;;9.48;63.42
47763;BME280;33526;42.690;23.322;2023-02-20T01:03:30;95237.25;;;8.36;63.62
47763;BME280;33526;42.690;23.322;2023-02-20T01:05:57;95248.50;;;8.33;63.78
47763;BME280;33526;42.690;23.322;2023-02-20T01:08:33;95407.00;;;9.39;64.15
47763;BME280;33526;42.690;23.322;2023-02-20T01:11:07;95254.19;;;8.29;64.15
47763;BME280;33526;42.690;23.322;2023-02-20T01:13:33;95335.00;;;8.90;64.44
47763;BME280;33526;42.690;23.322;2023-02-20T01:16:03;95350.38;;;8.94;64.67
47763;BME280;33526;42.690;23.322;2023-02-20T01:18:30;95350.16;;;8.89;64.51
47763;BME280;33526;42.690;23.322;2023-02-20T01:20:57;95315.91;;;8.66;64.72
47763;BME280;33526;42.690;23.322;2023-02-20T01:23:23;95283.28;;;8.41;64.92
47763;BME280;33526;42.690;23.322;2023-02-20T01:25:55;95377.72;;;8.87;64.92
47763;BME280;33526;42.690;23.322;2023-02-20T01:28:27;95334.72;;;8.62;64.87
47763;BME280;33526;42.690;23.322;2023-02-20T01:30:57;95339.97;;;8.60;64.88
47763;BME280;33526;42.690;23.322;2023-02-20T01:33:23;95345.06;;;8.74;64.62
47763;BME280;33526;42.690;23.322;2023-02-20T01:35:50;95441.63;;;9.29;65.30
47763;BME280;33526;42.690;23.322;2023-02-20T01:38:20;95279.84;;;8.24;65.29
47763;BME280;33526;42.690;23.322;2023-02-20T01:40:50;95313.47;;;8.55;64.89
47763;BME280;33526;42.690;23.322;2023-02-20T01:43:17;95331.69;;;8.69;65.22
47763;BME280;33526;42.690;23.322;2023-02-20T01:45:49;95433.44;;;9.47;65.47
47763;BME280;33526;42.690;23.322;2023-02-20T01:48:24;95443.03;;;9.46;65.26
47763;BME280;33526;42.690;23.322;2023-02-20T01:50:59;95345.72;;;8.78;65.28
47763;BME280;33526;42.690;23.322;2023-02-20T01:53:27;95303.75;;;8.60;65.48
47763;BME280;33526;42.690;23.322;2023-02-20T01:56:02;95378.09;;;9.11;65.40
47763;BME280;33526;42.690;23.322;2023-02-20T01:58:41;95358.97;;;8.87;65.62
47763;BME280;33526;42.690;23.322;2023-02-20T02:01:09;95303.66;;;8.51;65.75
47763;BME280;33526;42.690;23.322;2023-02-20T02:03:41;95408.53;;;9.18;66.29
47763;BME280;33526;42.690;23.322;2023-02-20T02:06:15;95324.72;;;8.65;66.37
47763;BME280;33526;42.690;23.322;2023-02-20T02:08:45;95452.44;;;9.40;66.66
47763;BME280;33526;42.690;23.322;2023-02-20T02:11:22;95444.84;;;9.40;66.57
47763;BME280;33526;42.690;23.322;2023-02-20T02:13:54;95283.19;;;8.19;66.67
47763;BME280;33526;42.690;23.322;2023-02-20T02:25:07;95459.69;;;9.02;67.03
47763;BME280;33526;42.690;23.322;2023-02-20T02:41:22;95459.94;;;8.44;67.50
47763;BME280;33526;42.690;23.322;2023-02-20T02:44:17;95364.94;;;7.74;67.68
47763;BME280;33526;42.690;23.322;2023-02-20T02:46:55;95375.50;;;7.66;67.77
47763;BME280;33526;42.690;23.322;2023-02-20T02:52:31;95484.22;;;8.30;68.31
47763;BME280;33526;42.690;23.322;2023-02-20T02:55:14;95367.78;;;7.57;68.04
47763;BME280;33526;42.690;23.322;2023-02-20T02:57:47;95371.81;;;7.56;68.31
47763;BME280;33526;42.690;23.322;2023-02-20T03:02:59;95385.38;;;7.54;68.63
47763;BME280;33526;42.690;23.322;2023-02-20T03:05:44;95346.44;;;7.25;68.75
47763;BME280;33526;42.690;23.322;2023-02-20T03:08:44;95358.94;;;7.33;68.80
47763;BME280;33526;42.690;23.322;2023-02-20T03:11:17;95333.38;;;7.09;68.55
47763;BME280;33526;42.690;23.322;2023-02-20T03:14:01;95508.25;;;8.24;68.70
47763;BME280;33526;42.690;23.322;2023-02-20T03:19:52;95512.50;;;8.16;69.31
47763;BME280;33526;42.690;23.322;2023-02-20T03:22:23;95505.44;;;8.11;69.41
47763;BME280;33526;42.690;23.322;2023-02-20T03:24:58;95413.59;;;7.40;69.03
47763;BME280;33526;42.690;23.322;2023-02-20T03:27:53;95516.34;;;8.06;69.37
47763;BME280;33526;42.690;23.322;2023-02-20T03:31:22;95430.28;;;7.40;68.79
47763;BME280;33526;42.690;23.322;2023-02-20T03:34:19;95380.16;;;6.98;68.43
47763;BME280;33526;42.690;23.322;2023-02-20T03:37:18;95439.47;;;7.24;68.36
47763;BME280;33526;42.690;23.322;2023-02-20T03:40:07;95409.84;;;7.17;68.04
47763;BME280;33526;42.690;23.322;2023-02-20T03:42:57;95432.03;;;7.34;68.15
47763;BME280;33526;42.690;23.322;2023-02-20T03:45:44;95458.22;;;7.65;68.24
47763;BME280;33526;42.690;23.322;2023-02-20T03:51:07;95508.78;;;7.77;67.89
47763;BME280;33526;42.690;23.322;2023-02-20T03:53:34;95377.66;;;6.87;67.87
47763;BME280;33526;42.690;23.322;2023-02-20T03:56:03;95416.97;;;7.02;67.83
47763;BME280;33526;42.690;23.322;2023-02-20T03:58:34;95447.81;;;7.24;67.65
47763;BME280;33526;42.690;23.322;2023-02-20T04:01:02;95401.91;;;6.86;67.87
47763;BME280;33526;42.690;23.322;2023-02-20T04:03:38;95553.81;;;7.88;68.27
47763;BME280;33526;42.690;23.322;2023-02-20T04:06:11;95397.91;;;6.87;67.95
47763;BME280;33526;42.690;23.322;2023-02-20T04:08:53;95403.47;;;6.87;67.88
47763;BME280;33526;42.690;23.322;2023-02-20T04:11:33;95374.22;;;6.66;67.92
47763;BME280;33526;42.690;23.322;2023-02-20T04:14:05;95448.34;;;7.19;67.93
47763;BME280;33526;42.690;23.322;2023-02-20T04:16:36;95485.38;;;7.45;67.95
47763;BME280;33526;42.690;23.322;2023-02-20T04:19:04;95370.56;;;6.69;67.39
47763;BME280;33526;42.690;23.322;2023-02-20T04:21:37;95427.91;;;7.09;67.35
47763;BME280;33526;42.690;23.322;2023-02-20T04:26:57;95550.41;;;7.97;67.48
47763;BME280;33526;42.690;23.322;2023-02-20T04:29:27;95496.00;;;7.50;67.63
47763;BME280;33526;42.690;23.322;2023-02-20T04:31:53;95407.47;;;6.86;67.31
47763;BME280;33526;42.690;23.322;2023-02-20T04:34:19;95521.97;;;7.60;67.63
47763;BME280;33526;42.690;23.322;2023-02-20T04:36:52;95410.34;;;6.83;67.79
47763;BME280;33526;42.690;23.322;2023-02-20T04:39:27;95461.81;;;7.20;68.24
47763;BME280;33526;42.690;23.322;2023-02-20T04:41:57;95408.66;;;6.85;68.50
47763;BME280;33526;42.690;23.322;2023-02-20T04:44:24;95374.69;;;6.48;68.68
47763;BME280;33526;42.690;23.322;2023-02-20T04:46:58;95391.16;;;6.56;68.65
47763;BME280;33526;42.690;23.322;2023-02-20T04:49:25;95475.28;;;7.05;68.41
47763;BME280;33526;42.690;23.322;2023-02-20T04:51:54;95565.97;;;7.65;67.87
47763;BME280;33526;42.690;23.322;2023-02-20T04:54:22;95456.97;;;6.92;67.81
47763;BME280;33526;42.690;23.322;2023-02-20T04:56:58;95576.31;;;7.64;67.62
47763;BME280;33526;42.690;23.322;2023-02-20T04:59:29;95543.03;;;7.44;66.80
47763;BME280;33526;42.690;23.322;2023-02-20T05:01:56;95478.97;;;7.02;66.27
47763;BME280;33526;42.690;23.322;2023-02-20T05:04:31;95538.97;;;7.33;65.55
47763;BME280;33526;42.690;23.322;2023-02-20T05:07:01;95592.59;;;7.66;64.91
47763;BME280;33526;42.690;23.322;2023-02-20T05:10:18;95483.72;;;6.85;64.39
47763;BME280;33526;42.690;23.322;2023-02-20T05:12:45;95504.41;;;6.84;64.30
47763;BME280;33526;42.690;23.322;2023-02-20T05:15:32;95428.13;;;6.36;63.90
47763;BME280;33526;42.690;23.322;2023-02-20T05:18:30;95503.34;;;6.78;62.76
47763;BME280;33526;42.690;23.322;2023-02-20T05:20:58;95430.00;;;6.23;62.83
47763;BME280;33526;42.690;23.322;2023-02-20T05:23:48;95412.66;;;6.19;63.00
47763;BME280;33526;42.690;23.322;2023-02-20T05:26:18;95470.69;;;6.49;62.80
47763;BME280;33526;42.690;23.322;2023-02-20T05:28:44;95611.56;;;7.38;62.58
47763;BME280;33526;42.690;23.322;2023-02-20T05:33:41;95537.31;;;6.86;62.94
47763;BME280;33526;42.690;23.322;2023-02-20T05:36:26;95466.31;;;6.32;62.66
47763;BME280;33526;42.690;23.322;2023-02-20T05:38:54;95533.56;;;6.76;62.87
47763;BME280;33526;42.690;23.322;2023-02-20T05:42:01;95648.59;;;7.52;63.04
47763;BME280;33526;42.690;23.322;2023-02-20T05:45:26;95647.91;;;7.47;63.39
47763;BME280;33526;42.690;23.322;2023-02-20T05:47:59;95470.91;;;6.39;63.64
47763;BME280;33526;42.690;23.322;2023-02-20T05:50:33;95621.97;;;7.34;63.63
47763;BME280;33526;42.690;23.322;2023-02-20T05:53:10;95467.72;;;6.40;63.76
47763;BME280;33526;42.690;23.322;2023-02-20T05:56:29;95642.84;;;7.59;64.25
47763;BME280;33526;42.690;23.322;2023-02-20T05:59:23;95453.81;;;6.40;64.32
47763;BME280;33526;42.690;23.322;2023-02-20T06:01:57;95518.47;;;6.77;64.51
47763;BME280;33526;42.690;23.322;2023-02-20T06:05:00;95541.06;;;6.96;64.40
47763;BME280;33526;42.690;23.322;2023-02-20T06:07:38;95520.03;;;6.78;64.12
47763;BME280;33526;42.690;23.322;2023-02-20T06:13:12;95648.66;;;7.81;62.66
47763;BME280;33526;42.690;23.322;2023-02-20T06:16:25;95484.75;;;6.75;60.91
47763;BME280;33526;42.690;23.322;2023-02-20T06:18:57;95662.06;;;7.86;59.61
47763;BME280;33526;42.690;23.322;2023-02-20T06:43:07;95583.38;;;7.98;58.30
47763;BME280;33526;42.690;23.322;2023-02-20T06:55:44;95699.31;;;8.54;56.94
47763;BME280;33526;42.690;23.322;2023-02-20T06:58:55;95522.09;;;7.40;56.81
47763;BME280;33526;42.690;23.322;2023-02-20T07:01:28;95622.03;;;7.96;56.73
47763;BME280;33526;42.690;23.322;2023-02-20T07:04:18;95684.25;;;8.35;56.44
47763;BME280;33526;42.690;23.322;2023-02-20T07:10:19;95583.63;;;7.75;55.83
47763;BME280;33526;42.690;23.322;2023-02-20T07:18:56;95677.91;;;8.64;53.98
47763;BME280;33526;42.690;23.322;2023-02-20T07:21:55;95579.22;;;8.19;53.26
47763;BME280;33526;42.690;23.322;2023-02-20T07:33:45;95680.78;;;8.90;51.24
47763;BME280;33526;42.690;23.322;2023-02-20T07:36:12;95685.34;;;8.84;51.10
47763;BME280;33526;42.690;23.322;2023-02-20T07:38:39;95619.28;;;8.38;50.52
47763;BME280;33526;42.690;23.322;2023-02-20T07:41:32;95638.28;;;8.44;51.29
47763;BME280;33526;42.690;23.322;2023-02-20T07:44:28;95692.16;;;8.83;51.25
47763;BME280;33526;42.690;23.322;2023-02-20T07:46:59;95655.78;;;8.44;50.74
47763;BME280;33526;42.690;23.322;2023-02-20T07:49:30;95702.53;;;8.53;50.85
47763;BME280;33526;42.690;23.322;2023-02-20T07:52:06;95577.19;;;7.45;50.90
47763;BME280;33526;42.690;23.322;2023-02-20T07:54:40;95660.31;;;8.09;51.10
47763;BME280;33526;42.690;23.322;2023-02-20T07:57:19;95583.13;;;7.63;51.00
47763;BME280;33526;42.690;23.322;2023-02-20T07:59:51;95693.06;;;8.34;51.04
47763;BME280;33526;42.690;23.322;2023-02-20T08:02:27;95610.75;;;7.87;51.20
47763;BME280;33526;42.690;23.322;2023-02-20T08:05:12;95671.22;;;8.32;50.41
47763;BME280;33526;42.690;23.322;2023-02-20T08:07:45;95623.66;;;7.94;49.94
47763;BME280;33526;42.690;23.322;2023-02-20T08:10:12;95634.19;;;8.02;49.86
47763;BME280;33526;42.690;23.322;2023-02-20T08:13:06;95735.38;;;8.74;49.55
47763;BME280;33526;42.690;23.322;2023-02-20T08:15:36;95688.94;;;8.55;49.04
47763;BME280;33526;42.690;23.322;2023-02-20T08:18:21;95746.16;;;8.89;49.06
47763;BME280;33526;42.690;23.322;2023-02-20T08:20:50;95668.94;;;8.44;48.98
47763;BME280;33526;42.690;23.322;2023-02-20T08:23:24;95614.31;;;8.17;48.58
47763;BME280;33526;42.690;23.322;2023-02-20T08:26:03;95645.47;;;8.57;48.46
47763;BME280;33526;42.690;23.322;2023-02-20T08:28:39;95704.22;;;9.05;48.04
47763;BME280;33526;42.690;23.322;2023-02-20T08:31:06;95612.19;;;8.21;47.75
47763;BME280;33526;42.690;23.322;2023-02-20T08:33:38;95727.03;;;9.16;47.89
47763;BME280;33526;42.690;23.322;2023-02-20T08:36:07;95657.31;;;8.74;48.00
47763;BME280;33526;42.690;23.322;2023-02-20T08:38:36;95735.53;;;9.26;47.37
47763;BME280;33526;42.690;23.322;2023-02-20T08:41:20;95684.59;;;8.96;47.78
47763;BME280;33526;42.690;23.322;2023-02-20T08:43:51;95585.69;;;8.16;47.38
47763;BME280;33526;42.690;23.322;2023-02-20T08:46:18;95623.53;;;8.14;48.26
47763;BME280;33526;42.690;23.322;2023-02-20T08:48:44;95682.72;;;8.64;48.56
47763;BME280;33526;42.690;23.322;2023-02-20T08:51:16;95742.19;;;9.15;48.10
47763;BME280;33526;42.690;23.322;2023-02-20T08:53:46;95743.41;;;9.14;47.38
47763;BME280;33526;42.690;23.322;2023-02-20T08:56:16;95729.16;;;9.25;47.18
47763;BME280;33526;42.690;23.322;2023-02-20T08:59:00;95623.13;;;8.45;47.38
47763;BME280;33526;42.690;23.322;2023-02-20T09:01:27;95610.00;;;8.58;47.14
47763;BME280;33526;42.690;23.322;2023-02-20T09:04:10;95643.63;;;8.93;46.59
47763;BME280;33526;42.690;23.322;2023-02-20T09:06:56;95737.56;;;9.64;46.09
47763;BME280;33526;42.690;23.322;2023-02-20T09:09:23;95650.03;;;9.06;45.36
47763;BME280;33526;42.690;23.322;2023-02-20T09:12:07;95737.31;;;9.45;45.38
47763;BME280;33526;42.690;23.322;2023-02-20T09:14:44;95693.91;;;9.31;45.59
47763;BME280;33526;42.690;23.322;2023-02-20T09:17:17;95679.50;;;9.33;45.09
47763;BME280;33526;42.690;23.322;2023-02-20T09:19:44;95597.13;;;8.77;44.97
47763;BME280;33526;42.690;23.322;2023-02-20T09:22:12;95679.41;;;9.36;44.87
47763;BME280;33526;42.690;23.322;2023-02-20T09:24:48;95597.34;;;8.83;44.88
47763;BME280;33526;42.690;23.322;2023-02-20T09:27:26;95671.56;;;9.44;44.95
47763;BME280;33526;42.690;23.322;2023-02-20T09:29:57;95601.34;;;9.07;44.88
47763;BME280;33526;42.690;23.322;2023-02-20T09:32:27;95586.41;;;9.01;44.95
47763;BME280;33526;42.690;23.322;2023-02-20T09:34:55;95677.78;;;9.74;45.05
47763;BME280;33526;42.690;23.322;2023-02-20T09:37:34;95644.09;;;9.43;45.18
47763;BME280;33526;42.690;23.322;2023-02-20T09:40:06;95606.28;;;9.03;45.17
47763;BME280;33526;42.690;23.322;2023-02-20T09:42:42;95595.34;;;8.96;46.02
47763;BME280;33526;42.690;23.322;2023-02-20T09:45:27;95589.88;;;9.18;45.41
47763;BME280;33526;42.690;23.322;2023-02-20T09:48:20;95646.44;;;9.44;45.91
47763;BME280;33526;42.690;23.322;2023-02-20T09:50:55;95667.66;;;9.54;45.67
47763;BME280;33526;42.690;23.322;2023-02-20T09:53:49;95721.44;;;9.93;45.82
47763;BME280;33526;42.690;23.322;2023-02-20T09:56:33;95681.47;;;9.97;45.12
47763;BME280;33526;42.690;23.322;2023-02-20T10:10:27;95734.53;;;10.57;42.64
47763;BME280;33526;42.690;23.322;2023-02-20T10:13:31;95715.91;;;10.41;42.78
47763;BME280;33526;42.690;23.322;2023-02-20T10:28:11;95696.16;;;10.58;41.16
47763;BME280;33526;42.690;23.322;2023-02-20T10:37:47;95691.47;;;10.77;40.33
47763;BME280;33526;42.690;23.322;2023-02-20T11:19:44;95671.00;;;11.33;40.59
47763;BME280;33526;42.690;23.322;2023-02-20T11:51:09;95547.34;;;11.25;39.17
47763;BME280;33526;42.690;23.322;2023-02-20T12:37:02;95638.25;;;12.02;38.73
47763;BME280;33526;42.690;23.322;2023-02-20T12:40:27;95642.31;;;12.10;38.55
47763;BME280;33526;42.690;23.322;2023-02-20T12:44:01;95637.81;;;12.22;38.12
47763;BME280;33526;42.690;23.322;2023-02-20T12:58:20;95645.75;;;12.05;38.56
47763;BME280;33526;42.690;23.322;2023-02-20T13:04:22;95554.44;;;11.67;37.78
47763;BME280;33526;42.690;23.322;2023-02-20T13:10:41;95635.91;;;11.91;38.28
47763;BME280;33526;42.690;23.322;2023-02-20T13:21:09;95648.56;;;12.14;38.38
47763;BME280;33526;42.690;23.322;2023-02-20T13:24:28;95658.16;;;11.95;38.49
47763;BME280;33526;42.690;23.322;2023-02-20T14:22:37;95553.22;;;10.78;41.42
47763;BME280;33526;42.690;23.322;2023-02-20T14:43:13;95677.06;;;11.00;43.51
47763;BME280;33526;42.690;23.322;2023-02-20T14:46:25;95577.13;;;9.90;44.24
47763;BME280;33526;42.690;23.322;2023-02-20T14:51:33;95586.47;;;9.97;44.31
47763;BME280;33526;42.690;23.322;2023-02-20T14:56:49;95675.34;;;10.59;44.81
47763;BME280;33526;42.690;23.322;2023-02-20T15:02:57;95545.25;;;9.66;44.79
47763;BME280;33526;42.690;23.322;2023-02-20T15:05:45;95558.53;;;9.74;44.62
47763;BME280;33526;42.690;23.322;2023-02-20T15:17:25;95658.00;;;10.29;45.00
47763;BME280;33526;42.690;23.322;2023-02-20T15:19:59;95557.72;;;9.74;44.98
47763;BME280;33526;42.690;23.322;2023-02-20T15:23:18;95696.03;;;10.61;45.22
47763;BME280;33526;42.690;23.322;2023-02-20T15:28:38;95692.09;;;10.37;46.01
47763;BME280;33526;42.690;23.322;2023-02-20T15:32:29;95604.75;;;9.75;46.10
47763;BME280;33526;42.690;23.322;2023-02-20T15:35:54;95520.25;;;8.89;46.74
47763;BME280;33526;42.690;23.322;2023-02-20T15:39:24;95693.97;;;10.05;46.93
47763;BME280;33526;42.690;23.322;2023-02-20T15:53:38;95698.78;;;9.91;47.19
47763;BME280;33526;42.690;23.322;2023-02-20T16:00:32;95684.19;;;9.62;48.15
47763;BME280;33526;42.690;23.322;2023-02-20T16:07:03;95696.47;;;9.51;49.15
47763;BME280;33526;42.690;23.322;2023-02-20T16:16:36;95560.88;;;8.35;49.91
47763;BME280;33526;42.690;23.322;2023-02-20T16:19:28;95557.63;;;8.23;49.88
47763;BME280;33526;42.690;23.322;2023-02-20T16:22:17;95615.59;;;8.58;50.11
47763;BME280;33526;42.690;23.322;2023-02-20T16:25:01;95545.75;;;8.07;50.55
47763;BME280;33526;42.690;23.322;2023-02-20T16:27:29;95658.09;;;8.75;50.22
47763;BME280;33526;42.690;23.322;2023-02-20T16:29:55;95717.84;;;9.03;50.70
47763;BME280;33526;42.690;23.322;2023-02-20T16:56:30;95743.34;;;8.89;51.95
47763;BME280;33526;42.690;23.322;2023-02-20T17:27:19;95654.06;;;7.88;53.01
47763;BME280;33526;42.690;23.322;2023-02-20T17:51:32;95751.75;;;8.27;53.58
47763;BME280;33526;42.690;23.322;2023-02-20T17:57:18;95741.91;;;8.22;54.23
47763;BME280;33526;42.690;23.322;2023-02-20T18:01:08;95738.44;;;8.18;54.20
47763;BME280;33526;42.690;23.322;2023-02-20T18:06:52;95627.97;;;7.33;54.71
47763;BME280;33526;42.690;23.322;2023-02-20T18:10:03;95752.81;;;8.16;54.41
47763;BME280;33526;42.690;23.322;2023-02-20T18:12:39;95612.00;;;7.20;54.75
47763;BME280;33526;42.690;23.322;2023-02-20T18:15:32;95629.22;;;7.32;54.55
47763;BME280;33526;42.690;23.322;2023-02-20T18:21:37;95618.59;;;7.43;54.69
47763;BME280;33526;42.690;23.322;2023-02-20T18:24:25;95604.84;;;7.36;54.34
47763;BME280;33526;42.690;23.322;2023-02-20T18:27:02;95667.13;;;7.75;54.36
47763;BME280;33526;42.690;23.322;2023-02-20T18:29:55;95545.94;;;6.92;54.94
47763;BME280;33526;42.690;23.322;2023-02-20T18:32:22;95718.31;;;8.10;54.39
47763;BME280;33526;42.690;23.322;2023-02-20T18:35:06;95718.78;;;8.09;54.81
47763;BME280;33526;42.690;23.322;2023-02-20T18:37:34;95673.13;;;7.73;54.66
47763;BME280;33526;42.690;23.322;2023-02-20T18:40:06;95553.03;;;6.93;54.27
47763;BME280;33526;42.690;23.322;2023-02-20T18:42:37;95584.19;;;7.20;54.51
47763;BME280;33526;42.690;23.322;2023-02-20T18:45:14;95675.28;;;7.82;54.96
47763;BME280;33526;42.690;23.322;2023-02-20T18:47:49;95625.66;;;7.47;54.49
47763;BME280;33526;42.690;23.322;2023-02-20T18:50:22;95547.81;;;6.95;54.41
47763;BME280;33526;42.690;23.322;2023-02-20T18:52:49;95533.84;;;6.82;54.81
47763;BME280;33526;42.690;23.322;2023-02-20T18:55:20;95708.69;;;7.98;54.55
47763;BME280;33526;42.690;23.322;2023-02-20T18:57:53;95553.22;;;6.85;54.66
47763;BME280;33526;42.690;23.322;2023-02-20T19:00:21;95585.56;;;7.12;54.90
47763;BME280;33526;42.690;23.322;2023-02-20T19:02:51;95702.97;;;7.89;54.79
47763;BME280;33526;42.690;23.322;2023-02-20T19:05:21;95642.25;;;7.51;54.82
47763;BME280;33526;42.690;23.322;2023-02-20T19:07:52;95624.94;;;7.43;54.72
47763;BME280;33526;42.690;23.322;2023-02-20T19:10:25;95614.59;;;7.44;54.69
47763;BME280;33526;42.690;23.322;2023-02-20T19:12:52;95588.16;;;7.19;54.44
47763;BME280;33526;42.690;23.322;2023-02-20T19:18:19;95538.19;;;6.99;54.56
47763;BME280;33526;42.690;23.322;2023-02-20T19:20:49;95493.25;;;6.68;54.75
47763;BME280;33526;42.690;23.322;2023-02-20T19:26:28;95574.44;;;7.28;54.51
47763;BME280;33526;42.690;23.322;2023-02-20T19:28:58;95605.66;;;7.53;54.62
47763;BME280;33526;42.690;23.322;2023-02-20T19:31:23;95572.88;;;7.27;54.07
47763;BME280;33526;42.690;23.322;2023-02-20T19:33:49;95661.88;;;7.93;54.54
47763;BME280;33526;42.690;23.322;2023-02-20T19:36:18;95568.88;;;7.28;54.26
47763;BME280;33526;42.690;23.322;2023-02-20T19:38:56;95520.63;;;6.86;54.27
47763;BME280;33526;42.690;23.322;2023-02-20T19:41:35;95531.88;;;6.99;53.95
47763;BME280;33526;42.690;23.322;2023-02-20T19:44:12;95659.78;;;7.97;54.21
47763;BME280;33526;42.690;23.322;2023-02-20T19:46:41;95592.00;;;7.58;54.06
47763;BME280;33526;42.690;23.322;2023-02-20T19:49:16;95583.38;;;7.53;53.90
47763;BME280;33526;42.690;23.322;2023-02-20T19:51:49;95571.97;;;7.47;53.52
47763;BME280;33526;42.690;23.322;2023-02-20T19:54:22;95541.06;;;7.28;53.71
47763;BME280;33526;42.690;23.322;2023-02-20T19:56:57;95573.47;;;7.52;53.36
47763;BME280;33526;42.690;23.322;2023-02-20T19:59:29;95471.06;;;6.84;53.28
47763;BME280;33526;42.690;23.322;2023-02-20T20:01:58;95640.19;;;8.01;53.33
47763;BME280;33526;42.690;23.322;2023-02-20T20:04:29;95498.03;;;7.00;53.37
47763;BME280;33526;42.690;23.322;2023-02-20T20:06:57;95491.47;;;6.94;53.49
47763;BME280;33526;42.690;23.322;2023-02-20T20:09:27;95557.56;;;7.36;53.00
47763;BME280;33526;42.690;23.322;2023-02-20T20:12:00;95532.47;;;7.23;53.27
47763;BME280;33526;42.690;23.322;2023-02-20T20:14:29;95584.31;;;7.62;53.29
47763;BME280;33526;42.690;23.322;2023-02-20T20:16:55;95550.63;;;7.27;53.50
47763;BME280;33526;42.690;23.322;2023-02-20T20:19:30;95541.50;;;7.11;54.00
47763;BME280;33526;42.690;23.322;2023-02-20T20:21:56;95641.72;;;7.73;54.38
47763;BME280;33526;42.690;23.322;2023-02-20T20:24:23;95485.28;;;6.70;54.14
47763;BME280;33526;42.690;23.322;2023-02-20T20:26:49;95530.97;;;6.85;55.36
47763;BME280;33526;42.690;23.322;2023-02-20T20:29:15;95571.31;;;7.10;55.44
47763;BME280;33526;42.690;23.322;2023-02-20T20:31:40;95539.31;;;6.85;55.55
47763;BME280;33526;42.690;23.322;2023-02-20T20:34:07;95445.13;;;6.22;55.64
47763;BME280;33526;42.690;23.322;2023-02-20T20:36:33;95553.91;;;6.89;55.97
47763;BME280;33526;42.690;23.322;2023-02-20T20:38:59;95476.03;;;6.40;56.03
47763;BME280;33526;42.690;23.322;2023-02-20T20:41:24;95467.25;;;6.25;56.18
47763;BME280;33526;42.690;23.322;2023-02-20T20:43:50;95456.31;;;6.18;56.15
47763;BME280;33526;42.690;23.322;2023-02-20T20:46:16;95609.72;;;7.15;56.70
47763;BME280;33526;42.690;23.322;2023-02-20T20:48:45;95596.50;;;7.03;56.99
47763;BME280;33526;42.690;23.322;2023-02-20T20:51:12;95555.34;;;6.61;57.34
47763;BME280;33526;42.690;23.322;2023-02-20T20:53:39;95460.44;;;6.10;57.25
47763;BME280;33526;42.690;23.322;2023-02-20T20:56:06;95413.91;;;5.78;57.43
47763;BME280;33526;42.690;23.322;2023-02-20T20:58:32;95463.50;;;6.16;57.09
47763;BME280;33526;42.690;23.322;2023-02-20T21:01:02;95447.88;;;6.05;56.64
47763;BME280;33526;42.690;23.322;2023-02-20T21:03:32;95591.28;;;7.05;56.56
47763;BME280;33526;42.690;23.322;2023-02-20T21:05:59;95530.44;;;6.74;56.21
47763;BME280;33526;42.690;23.322;2023-02-20T21:08:30;95535.16;;;6.77;56.25
47763;BME280;33526;42.690;23.322;2023-02-20T21:11:11;95448.34;;;6.20;55.93
47763;BME280;33526;42.690;23.322;2023-02-20T21:13:39;95435.19;;;6.04;56.54
47763;BME280;33526;42.690;23.322;2023-02-20T21:16:22;95597.25;;;6.87;57.53
47763;BME280;33526;42.690;23.322;2023-02-20T21:18:51;95463.56;;;6.12;57.25
47763;BME280;33526;42.690;23.322;2023-02-20T21:21:24;95455.84;;;6.03;57.48
47763;BME280;33526;42.690;23.322;2023-02-20T21:24:14;95567.38;;;6.91;56.61
47763;BME280;33526;42.690;23.322;2023-02-20T21:26:40;95470.31;;;6.31;56.24
47763;BME280;33526;42.690;23.322;2023-02-20T21:29:06;95461.72;;;6.25;56.49
47763;BME280;33526;42.690;23.322;2023-02-20T21:31:34;95426.38;;;5.89;56.56
47763;BME280;33526;42.690;23.322;2023-02-20T21:34:02;95478.59;;;6.15;57.14
47763;BME280;33526;42.690;23.322;2023-02-20T21:36:28;95437.03;;;5.91;57.73
47763;BME280;33526;42.690;23.322;2023-02-20T21:38:56;95525.53;;;6.45;58.24
47763;BME280;33526;42.690;23.322;2023-02-20T21:41:23;95473.19;;;6.07;58.84